Time;durP1;ratioP1;P1;durP2;ratioP2;P2;SDS_P1;SDS_P2;PMS_P1;PMS_P2;Temp;Humidity;BMP_temperature;BMP_pressure;BME280_temperature;BME280_humidity;BME280_pressure;Samples;Min_cycle;Max_cycle;Signal;HPM_P1;HPM_P2
2021/12/05 00:22:52;;;;;;;53.83;29.38;;;;;;;2.11;99.02;99418.16;5091525;28;20036;-65
2021/12/05 00:25:25;;;;;;;49.63;29.33;;;;;;;2.09;99.59;99409.47;5091232;28;20038;-65
2021/12/05 00:28:35;;;;;;;51.00;29.20;;;;;;;2.15;99.49;99422.28;5091003;28;20044;-65
2021/12/05 00:37:24;;;;;;;53.45;29.92;;;;;;;2.17;99.25;99419.53;5091248;28;20067;-65
2021/12/05 00:42:05;;;;;;;51.17;29.25;;;;;;;2.19;99.32;99425.56;5090993;28;20026;-65
2021/12/05 01:03:42;;;;;;;52.85;29.35;;;;;;;2.28;99.68;99446.09;5090207;28;20506;-66
2021/12/05 01:16:42;;;;;;;56.65;29.13;;;;;;;2.30;100.00;99452.13;5089802;28;20144;-65
2021/12/05 01:19:10;;;;;;;42.67;26.25;;;;;;;2.27;100.00;99450.56;5071549;28;20027;-65
2021/12/05 01:21:38;;;;;;;49.35;28.80;;;;;;;2.30;100.00;99452.97;5089659;28;20431;-65
2021/12/05 01:24:25;;;;;;;49.67;29.40;;;;;;;2.30;99.96;99457.44;5089579;28;20031;-65
2021/12/05 01:29:26;;;;;;;52.00;29.15;;;;;;;2.31;100.00;99444.09;5089558;28;20040;-65
2021/12/05 01:53:13;;;;;;;56.97;31.15;;;;;;;2.47;100.00;99424.50;5033863;28;20056;-66
2021/12/05 02:31:27;;;;;;;52.40;30.40;;;;;;;2.62;100.00;99365.22;5093551;28;20092;-66
2021/12/05 02:39:39;;;;;;;52.80;30.00;;;;;;;2.62;100.00;99357.28;5093276;28;20032;-65
2021/12/05 02:41:52;;;;;;;47.45;27.20;;;;;;;2.66;100.00;99340.25;5086658;28;20121;-66
2021/12/05 02:46:47;;;;;;;57.55;29.92;;;;;;;2.66;100.00;99343.75;5093045;28;20082;-66
2021/12/05 02:49:15;;;;;;;50.67;28.65;;;;;;;2.69;100.00;99354.09;5093232;28;20073;-65
2021/12/05 02:51:42;;;;;;;52.13;28.48;;;;;;;2.68;100.00;99333.91;5093152;28;20129;-65
2021/12/05 02:54:16;;;;;;;51.95;28.80;;;;;;;2.68;100.00;99346.28;5092887;28;20172;-65
2021/12/05 02:56:46;;;;;;;49.53;28.20;;;;;;;2.65;100.00;99342.06;5093109;28;20444;-66
2021/12/05 02:59:51;;;;;;;50.30;28.58;;;;;;;2.66;100.00;99334.94;5093103;28;20031;-65
2021/12/05 03:02:13;;;;;;;50.72;28.15;;;;;;;2.70;100.00;99339.09;5089895;28;20043;-65
2021/12/05 03:04:44;;;;;;;53.35;28.73;;;;;;;2.65;100.00;99330.63;5091154;28;20032;-65
2021/12/05 03:07:10;;;;;;;55.95;27.75;;;;;;;2.66;100.00;99327.00;5092795;28;20137;-65
2021/12/05 03:09:39;;;;;;;53.17;28.42;;;;;;;2.72;100.00;99337.16;5092822;28;20031;-66
2021/12/05 03:12:06;;;;;;;47.15;28.27;;;;;;;2.67;100.00;99332.19;5074757;28;20055;-65
2021/12/05 03:14:31;;;;;;;51.70;28.92;;;;;;;2.57;100.00;99307.34;5092542;28;20091;-66
2021/12/05 03:16:57;;;;;;;52.75;29.10;;;;;;;2.68;100.00;99328.59;5074447;28;20472;-66
2021/12/05 03:19:22;;;;;;;52.00;29.70;;;;;;;2.69;100.00;99334.72;5091686;28;20082;-66
2021/12/05 03:21:51;;;;;;;49.65;27.20;;;;;;;2.69;100.00;99338.22;5092182;28;20032;-66
2021/12/05 03:24:18;;;;;;;54.75;29.10;;;;;;;2.70;100.00;99331.97;5092088;28;20036;-66
2021/12/05 03:26:47;;;;;;;47.38;27.40;;;;;;;2.71;100.00;99338.13;5092495;28;20039;-66
2021/12/05 03:29:15;;;;;;;52.22;28.05;;;;;;;2.69;100.00;99330.28;5092571;28;20043;-67
2021/12/05 03:31:41;;;;;;;51.53;28.23;;;;;;;2.72;100.00;99330.06;5092293;28;20035;-66
2021/12/05 03:34:09;;;;;;;52.92;27.92;;;;;;;2.71;100.00;99330.19;5092293;28;20480;-65
2021/12/05 03:36:37;;;;;;;46.17;26.65;;;;;;;2.70;100.00;99325.84;5092216;28;20031;-66
2021/12/05 03:39:06;;;;;;;51.83;27.80;;;;;;;2.73;100.00;99333.53;5092221;28;20031;-66
2021/12/05 03:41:32;;;;;;;51.65;27.10;;;;;;;2.72;100.00;99319.47;5092111;28;20036;-66
2021/12/05 03:43:58;;;;;;;47.78;26.85;;;;;;;2.65;100.00;99307.66;5092218;28;20085;-65
2021/12/05 03:46:26;;;;;;;48.22;26.83;;;;;;;2.69;100.00;99313.56;5092253;28;20139;-66
2021/12/05 03:48:57;;;;;;;50.17;27.02;;;;;;;2.72;100.00;99310.69;5092155;28;20081;-66
2021/12/05 03:51:25;;;;;;;49.75;27.92;;;;;;;2.74;100.00;99314.09;5092363;28;20031;-65
2021/12/05 03:53:51;;;;;;;51.83;28.45;;;;;;;2.74;100.00;99312.25;5091889;28;20020;-65
2021/12/05 03:56:17;;;;;;;46.88;27.17;;;;;;;2.74;100.00;99325.50;5091835;28;20026;-65
2021/12/05 03:58:44;;;;;;;51.78;27.77;;;;;;;2.73;100.00;99317.66;5091967;28;20496;-66
2021/12/05 04:01:11;;;;;;;51.00;29.00;;;;;;;2.75;100.00;99329.84;5073728;28;20032;-66
2021/12/05 04:03:39;;;;;;;46.97;26.85;;;;;;;2.73;100.00;99330.91;5091786;28;20480;-66
2021/12/05 04:06:07;;;;;;;44.88;26.60;;;;;;;2.73;100.00;99331.75;5090336;28;20054;-66
2021/12/05 04:08:33;;;;;;;48.80;27.70;;;;;;;2.76;100.00;99338.63;5071818;28;20032;-65
2021/12/05 04:11:09;;;;;;;50.28;28.80;;;;;;;2.78;100.00;99348.16;5091753;28;20047;-66
2021/12/05 04:13:34;;;;;;;47.65;27.35;;;;;;;2.72;100.00;99353.91;5094757;28;20040;-66
2021/12/05 04:16:02;;;;;;;50.35;29.65;;;;;;;2.74;100.00;99357.25;5094214;28;20028;-66
2021/12/05 04:18:28;;;;;;;50.22;28.88;;;;;;;2.69;100.00;99353.25;5098130;28;20019;-66
2021/12/05 04:20:54;;;;;;;46.85;28.08;;;;;;;2.72;100.00;99356.53;5095580;28;20050;-65
2021/12/05 04:23:20;;;;;;;48.85;27.00;;;;;;;2.72;100.00;99358.31;5096670;28;20031;-66
2021/12/05 04:25:49;;;;;;;49.67;28.73;;;;;;;2.70;100.00;99366.38;5095841;28;20194;-65
2021/12/05 04:28:16;;;;;;;47.25;27.20;;;;;;;2.70;100.00;99365.56;5094108;28;20043;-66
2021/12/05 04:30:42;;;;;;;53.85;28.70;;;;;;;2.70;100.00;99370.84;5076621;28;20159;-66
2021/12/05 04:33:07;;;;;;;52.63;28.02;;;;;;;2.68;100.00;99370.09;5075202;28;20039;-66
2021/12/05 04:35:34;;;;;;;50.83;27.65;;;;;;;2.68;100.00;99375.38;5092375;28;20531;-66
2021/12/05 04:37:59;;;;;;;53.10;28.92;;;;;;;2.65;100.00;99373.81;5098588;28;21309;-66
2021/12/05 04:40:25;;;;;;;52.17;29.38;;;;;;;2.67;100.00;99374.53;5091128;28;20039;-66
2021/12/05 04:42:51;;;;;;;54.10;28.60;;;;;;;2.68;100.00;99378.03;5091103;28;20047;-66
2021/12/05 04:45:23;;;;;;;49.92;29.17;;;;;;;2.67;100.00;99366.59;5090788;28;20517;-66
2021/12/05 04:47:49;;;;;;;51.85;28.52;;;;;;;2.71;100.00;99372.53;5090921;28;20035;-65
2021/12/05 04:50:16;;;;;;;51.05;28.65;;;;;;;2.73;100.00;99370.59;5072797;28;20028;-66
2021/12/05 04:52:42;;;;;;;51.53;28.13;;;;;;;2.74;100.00;99380.25;5090847;28;20055;-66
2021/12/05 04:55:10;;;;;;;51.25;27.88;;;;;;;2.73;100.00;99370.59;5072445;28;20035;-66
2021/12/05 04:57:35;;;;;;;49.53;28.17;;;;;;;2.73;100.00;99373.25;5090653;28;20032;-66
2021/12/05 05:00:03;;;;;;;47.72;26.35;;;;;;;2.75;100.00;99374.84;5090871;28;20034;-66
2021/12/05 05:02:29;;;;;;;51.05;29.13;;;;;;;2.77;100.00;99380.03;5090653;28;20077;-66
2021/12/05 05:04:54;;;;;;;46.65;26.23;;;;;;;2.74;100.00;99383.72;5072636;28;20039;-66
2021/12/05 05:07:25;;;;;;;43.00;26.08;;;;;;;2.79;100.00;99386.91;5092639;28;20035;-66
2021/12/05 05:09:58;;;;;;;56.58;29.23;;;;;;;2.76;100.00;99378.31;5097961;28;20027;-66
2021/12/05 05:12:24;;;;;;;47.65;26.52;;;;;;;2.74;100.00;99372.31;5094571;28;20039;-66
2021/12/05 05:14:51;;;;;;;57.17;28.17;;;;;;;2.78;100.00;99374.63;5096028;28;20028;-66
2021/12/05 05:17:17;;;;;;;50.15;29.25;;;;;;;2.79;100.00;99375.47;5094270;28;20088;-65
2021/12/05 05:19:50;;;;;;;51.88;29.88;;;;;;;2.80;100.00;99369.25;5099195;28;20035;-66
2021/12/05 05:44:07;;;;;;;49.97;27.65;;;;;;;2.91;100.00;99359.56;5098399;28;20724;-66
2021/12/05 05:49:16;;;;;;;49.25;27.98;;;;;;;2.90;100.00;99352.56;5096249;28;20032;-66
2021/12/05 05:51:42;;;;;;;46.70;28.25;;;;;;;2.89;100.00;99345.59;5099528;28;20020;-66
2021/12/05 05:54:08;;;;;;;49.15;27.65;;;;;;;2.85;100.00;99344.13;5096723;28;20024;-66
2021/12/05 05:56:35;;;;;;;47.78;28.13;;;;;;;2.92;100.00;99355.97;5099777;28;20391;-66
2021/12/05 05:59:08;;;;;;;50.65;28.92;;;;;;;2.93;100.00;99354.16;5096799;28;20062;-66
2021/12/05 06:04:06;;;;;;;55.05;29.05;;;;;;;2.85;100.00;99351.19;5096814;28;20027;-66
2021/12/05 06:06:32;;;;;;;55.70;30.20;;;;;;;2.86;100.00;99344.94;5096732;28;20018;-66
2021/12/05 06:09:00;;;;;;;47.88;28.13;;;;;;;2.94;100.00;99354.06;5078354;28;20396;-66
2021/12/05 06:11:25;;;;;;;50.88;27.80;;;;;;;2.94;100.00;99355.84;5096782;28;20115;-66
2021/12/05 06:13:52;;;;;;;51.80;29.75;;;;;;;2.99;100.00;99369.59;5096590;28;20111;-66
2021/12/05 06:16:18;;;;;;;53.40;30.63;;;;;;;3.01;100.00;99371.19;5096416;28;20065;-66
2021/12/05 06:18:46;;;;;;;57.15;30.42;;;;;;;2.96;100.00;99357.41;5078183;28;20094;-67
2021/12/05 06:21:15;;;;;;;53.85;29.33;;;;;;;2.95;100.00;99358.38;5096662;28;20024;-65
2021/12/05 06:23:42;;;;;;;49.33;28.85;;;;;;;2.94;100.00;99363.78;5075957;28;20109;-65
2021/12/05 06:26:11;;;;;;;49.90;29.45;;;;;;;2.95;100.00;99368.97;5096771;28;20353;-65
2021/12/05 06:47:10;;;;;;;58.00;31.63;;;;;;;3.03;100.00;99401.03;5096807;28;20043;-66
2021/12/05 06:49:36;;;;;;;52.47;30.70;;;;;;;3.00;100.00;99389.84;5096656;28;20263;-65
2021/12/05 06:52:02;;;;;;;54.85;30.50;;;;;;;2.97;100.00;99401.47;5096672;28;20035;-65
2021/12/05 06:54:28;;;;;;;55.10;31.63;;;;;;;3.03;100.00;99408.16;5095067;28;20373;-69
2021/12/05 06:56:53;;;;;;;57.60;32.05;;;;;;;2.97;100.00;99400.66;5092420;28;20024;-69
2021/12/05 06:59:19;;;;;;;53.65;30.85;;;;;;;2.97;100.00;99408.59;5071676;28;20054;-69
2021/12/05 07:01:45;;;;;;;52.17;29.25;;;;;;;3.00;100.00;99418.97;5091713;28;20040;-68
2021/12/05 07:04:45;;;;;;;56.65;32.63;;;;;;;2.97;100.00;99414.72;5088242;28;20036;-68
2021/12/05 07:07:08;;;;;;;47.58;29.58;;;;;;;2.99;100.00;99404.88;5090038;28;20085;-68
2021/12/05 07:09:34;;;;;;;54.85;30.67;;;;;;;2.97;100.00;99398.00;5091538;28;20101;-68
2021/12/05 07:14:55;;;;;;;57.30;31.05;;;;;;;3.00;100.00;99397.78;5089615;28;20054;-68
2021/12/05 07:20:10;;;;;;;56.10;30.60;;;;;;;3.06;100.00;99410.59;5091067;28;20036;-69
2021/12/05 07:25:12;;;;;;;56.38;30.33;;;;;;;3.05;100.00;99406.22;5090317;28;20089;-69
2021/12/05 07:41:33;;;;;;;57.30;32.38;;;;;;;3.05;100.00;99419.47;5090831;28;20093;-69
2021/12/05 07:43:59;;;;;;;56.47;31.10;;;;;;;3.10;100.00;99433.25;5069853;28;20481;-70
2021/12/05 07:46:24;;;;;;;58.25;33.10;;;;;;;3.12;100.00;99442.75;5090653;28;20105;-70
2021/12/05 07:48:50;;;;;;;54.80;31.10;;;;;;;3.13;100.00;99438.31;5090551;28;20392;-69
2021/12/05 07:59:08;;;;;;;56.45;29.05;;;;;;;3.08;100.00;99436.00;5090384;28;21336;-68
2021/12/05 08:15:19;;;;;;;51.53;29.55;;;;;;;3.17;100.00;99418.59;5089085;28;20026;-69
2021/12/05 08:17:53;;;;;;;56.58;29.50;;;;;;;3.17;100.00;99421.25;5090212;28;20511;-69
2021/12/05 08:20:44;;;;;;;53.95;29.95;;;;;;;3.16;100.00;99432.81;5090336;28;20026;-69
2021/12/05 08:23:12;;;;;;;58.70;30.90;;;;;;;3.21;100.00;99436.81;5087929;28;20040;-69
2021/12/05 08:25:40;;;;;;;53.33;30.42;;;;;;;3.21;100.00;99425.34;5089905;28;20085;-69
2021/12/05 08:28:24;;;;;;;51.65;30.25;;;;;;;3.18;100.00;99420.28;5089039;28;20067;-69
2021/12/05 08:31:04;;;;;;;56.10;31.15;;;;;;;3.25;100.00;99426.81;5072164;28;20437;-68
2021/12/05 08:33:45;;;;;;;56.80;31.52;;;;;;;3.24;100.00;99417.19;5090408;28;20043;-69
2021/12/05 10:06:40;;;;;;;62.97;34.83;;;;;;;4.00;100.00;99368.13;5089619;28;20054;-64
2021/12/05 10:12:50;;;;;;;51.58;30.95;;;;;;;4.01;100.00;99343.28;5071143;28;20037;-65
2021/12/05 10:33:59;;;;;;;57.30;32.13;;;;;;;4.21;100.00;99327.53;5074493;28;20439;-65
2021/12/05 10:36:27;;;;;;;56.03;31.85;;;;;;;4.27;100.00;99327.06;5074447;28;20025;-65
2021/12/05 10:38:59;;;;;;;60.40;34.17;;;;;;;4.29;100.00;99311.84;5074255;28;20025;-65
2021/12/05 10:43:59;;;;;;;59.90;34.42;;;;;;;4.40;100.00;99318.97;5074398;28;20537;-65
2021/12/05 10:46:29;;;;;;;62.40;36.50;;;;;;;4.37;100.00;99309.44;5074217;28;20032;-65
2021/12/05 10:49:03;;;;;;;59.22;34.85;;;;;;;4.42;100.00;99314.41;5056830;28;20037;-66
2021/12/05 10:51:35;;;;;;;59.95;34.53;;;;;;;4.47;100.00;99320.19;5074057;28;20032;-65
2021/12/05 10:54:12;;;;;;;61.30;36.50;;;;;;;4.49;100.00;99311.13;5074051;28;20719;-66
2021/12/05 10:56:47;;;;;;;59.22;36.05;;;;;;;4.51;100.00;99311.00;5075877;28;20051;-65
2021/12/05 10:59:17;;;;;;;63.60;35.17;;;;;;;4.51;100.00;99303.88;5094585;28;20031;-65
2021/12/05 11:02:01;;;;;;;61.47;35.13;;;;;;;4.57;100.00;99302.56;5094543;28;20040;-66
2021/12/05 11:04:32;;;;;;;57.17;32.63;;;;;;;4.57;100.00;99313.16;5094242;28;20437;-65
2021/12/05 11:07:02;;;;;;;55.38;32.28;;;;;;;4.56;100.00;99306.19;5094418;28;20042;-66
2021/12/05 11:09:36;;;;;;;57.20;31.58;;;;;;;4.55;100.00;99307.97;5091445;28;20098;-66
2021/12/05 11:12:08;;;;;;;55.30;31.37;;;;;;;4.60;100.00;99316.44;5073969;28;20039;-66
2021/12/05 11:15:03;;;;;;;53.90;32.58;;;;;;;4.57;100.00;99321.13;5073750;28;20177;-66
2021/12/05 11:17:36;;;;;;;54.50;31.58;;;;;;;4.57;100.00;99321.13;5068550;28;20097;-65
2021/12/05 11:20:09;;;;;;;54.08;32.95;;;;;;;4.58;100.00;99314.88;5073563;28;20118;-66
2021/12/05 11:22:39;;;;;;;50.72;30.38;;;;;;;4.56;100.00;99320.31;5055306;28;20166;-66
2021/12/05 11:25:15;;;;;;;51.42;31.38;;;;;;;4.58;100.00;99313.03;5073213;28;20046;-66
2021/12/05 11:27:42;;;;;;;56.92;31.77;;;;;;;4.61;100.00;99322.56;5073536;28;20017;-66
2021/12/05 11:30:31;;;;;;;51.47;30.00;;;;;;;4.61;100.00;99323.44;5073471;28;20481;-66
2021/12/05 11:33:06;;;;;;;46.13;27.15;;;;;;;4.64;100.00;99327.63;5073497;28;20036;-66
2021/12/05 11:35:42;;;;;;;46.03;27.17;;;;;;;4.64;100.00;99314.38;5073081;28;20337;-66
2021/12/05 11:38:18;;;;;;;45.17;25.40;;;;;;;4.67;100.00;99319.44;5073484;28;20065;-66
2021/12/05 11:40:59;;;;;;;43.28;25.33;;;;;;;4.66;100.00;99313.31;5054549;28;20102;-65
2021/12/05 11:43:24;;;;;;;48.55;27.85;;;;;;;4.68;100.00;99313.19;5070802;28;20032;-66
2021/12/05 11:46:02;;;;;;;47.30;27.48;;;;;;;4.69;100.00;99314.84;5086217;28;20046;-66
2021/12/05 11:48:33;;;;;;;43.25;26.45;;;;;;;4.70;100.00;99300.59;5073390;28;20031;-65
2021/12/05 11:51:01;;;;;;;47.33;28.00;;;;;;;4.72;100.00;99306.66;5073912;28;20074;-66
2021/12/05 11:53:42;;;;;;;50.33;28.83;;;;;;;4.73;100.00;99303.03;5091026;28;20044;-65
2021/12/05 11:56:10;;;;;;;47.67;27.30;;;;;;;4.67;100.00;99304.34;5073243;28;20074;-66
2021/12/05 11:58:36;;;;;;;53.63;28.73;;;;;;;4.73;100.00;99305.66;5073213;28;20032;-66
2021/12/05 12:01:13;;;;;;;49.42;28.95;;;;;;;4.72;100.00;99304.00;5073969;28;20077;-66
2021/12/05 12:03:41;;;;;;;51.13;29.77;;;;;;;4.75;100.00;99311.72;5073185;28;20431;-65
2021/12/05 12:06:07;;;;;;;54.25;29.52;;;;;;;4.69;100.00;99297.13;5092107;28;20019;-65
2021/12/05 12:08:33;;;;;;;56.20;31.38;;;;;;;4.72;100.00;99298.69;5090007;28;20040;-65
2021/12/05 12:11:02;;;;;;;54.22;31.20;;;;;;;4.71;100.00;99292.50;5076599;28;20053;-65
2021/12/05 12:13:35;;;;;;;50.60;28.30;;;;;;;4.73;100.00;99300.34;5073803;28;20042;-65
2021/12/05 12:16:07;;;;;;;48.53;27.75;;;;;;;4.72;100.00;99304.84;5072574;28;20035;-66
2021/12/05 12:18:36;;;;;;;51.40;29.48;;;;;;;4.76;100.00;99305.44;5071899;28;20059;-66
2021/12/05 12:21:19;;;;;;;51.40;29.88;;;;;;;4.73;100.00;99295.91;5090286;28;20060;-66
2021/12/05 12:23:49;;;;;;;46.42;28.10;;;;;;;4.73;100.00;99308.31;5071846;28;20569;-66
2021/12/05 12:26:15;;;;;;;52.58;29.98;;;;;;;4.70;100.00;99309.44;5090030;28;20056;-66
2021/12/05 12:28:41;;;;;;;45.97;27.33;;;;;;;4.65;100.00;99302.81;5089604;28;20036;-65
2021/12/05 12:31:14;;;;;;;47.35;27.40;;;;;;;4.64;100.00;99304.59;5089299;28;20038;-65
2021/12/05 12:33:53;;;;;;;43.30;27.88;;;;;;;4.68;100.00;99311.34;5090061;28;20496;-66
2021/12/05 12:36:44;;;;;;;50.85;29.02;;;;;;;4.68;100.00;99315.84;5090271;28;20519;-66
2021/12/05 12:39:15;;;;;;;44.90;25.98;;;;;;;4.67;100.00;99314.13;5075560;28;20028;-66
2021/12/05 12:41:42;;;;;;;46.00;26.80;;;;;;;4.66;100.00;99315.09;5070795;28;20513;-66
2021/12/05 12:44:08;;;;;;;43.85;25.88;;;;;;;4.66;100.00;99302.69;5071384;28;20416;-66
2021/12/05 12:46:49;;;;;;;45.72;27.77;;;;;;;4.68;100.00;99302.56;5089649;28;20093;-66
2021/12/05 12:49:14;;;;;;;46.08;27.48;;;;;;;4.67;100.00;99292.88;5089001;28;20038;-66
2021/12/05 12:52:18;;;;;;;53.85;30.00;;;;;;;4.68;100.00;99291.94;5070482;28;20036;-66
2021/12/05 12:54:55;;;;;;;51.15;29.45;;;;;;;4.70;100.00;99290.84;5089445;28;20039;-65
2021/12/05 12:57:24;;;;;;;52.30;30.25;;;;;;;4.72;100.00;99290.72;5087897;28;20406;-66
2021/12/05 13:00:15;;;;;;;54.05;31.30;;;;;;;4.72;100.00;99294.22;5088751;28;20121;-66
2021/12/05 13:11:05;;;;;;;65.90;36.67;;;;;;;4.77;100.00;99272.59;5085784;28;20055;-66
2021/12/05 13:13:33;;;;;;;67.45;36.95;;;;;;;4.77;100.00;99277.06;5086137;28;20027;-66
2021/12/05 13:16:16;;;;;;;62.20;35.13;;;;;;;4.78;100.00;99276.09;5070472;28;20043;-66
2021/12/05 13:18:45;;;;;;;58.78;33.30;;;;;;;4.72;100.00;99266.81;5088800;28;20028;-66
2021/12/05 13:21:40;;;;;;;58.95;33.42;;;;;;;4.76;100.00;99262.94;5089234;28;20055;-67
2021/12/05 13:24:27;;;;;;;55.20;32.55;;;;;;;4.81;100.00;99266.06;5085042;28;20027;-66
2021/12/05 13:27:03;;;;;;;55.45;31.98;;;;;;;4.79;100.00;99260.03;5086567;28;20044;-66
2021/12/05 13:29:34;;;;;;;56.92;32.53;;;;;;;4.74;100.00;99243.63;5088095;28;20032;-66
2021/12/05 13:32:10;;;;;;;56.08;31.70;;;;;;;4.82;100.00;99257.13;5070176;28;20044;-66
2021/12/05 13:34:40;;;;;;;58.05;31.77;;;;;;;4.80;100.00;99258.22;5070251;28;20432;-65
2021/12/05 13:37:06;;;;;;;50.75;28.73;;;;;;;4.78;100.00;99258.34;5088032;28;20392;-65
2021/12/05 13:39:43;;;;;;;48.55;27.38;;;;;;;4.80;100.00;99253.75;5088025;28;20028;-65
2021/12/05 13:42:14;;;;;;;51.97;27.73;;;;;;;4.80;100.00;99256.41;5087736;28;20519;-66
2021/12/05 13:45:06;;;;;;;47.67;27.70;;;;;;;4.78;100.00;99257.50;5088282;28;20035;-65
2021/12/05 13:47:43;;;;;;;47.80;27.85;;;;;;;4.77;100.00;99256.66;5087852;28;20044;-65
2021/12/05 13:52:52;;;;;;;48.75;26.90;;;;;;;4.77;100.00;99261.97;5087971;28;20035;-65
2021/12/05 13:55:58;;;;;;;50.53;28.00;;;;;;;4.77;100.00;99269.09;5087849;28;20442;-66
2021/12/05 13:58:34;;;;;;;47.85;27.40;;;;;;;4.76;100.00;99260.28;5087384;28;20058;-66
2021/12/05 14:01:00;;;;;;;48.55;28.50;;;;;;;4.74;100.00;99257.75;5088728;28;20028;-66
2021/12/05 14:03:53;;;;;;;53.10;30.55;;;;;;;4.74;100.00;99251.59;5088341;28;20772;-66
2021/12/05 14:06:57;;;;;;;53.75;29.02;;;;;;;4.76;100.00;99252.31;5090960;28;20380;-66
2021/12/05 14:09:25;;;;;;;46.97;26.25;;;;;;;4.75;100.00;99251.47;5087240;28;20609;-66
2021/12/05 14:12:01;;;;;;;54.33;29.92;;;;;;;4.71;100.00;99244.72;5073645;28;20515;-66
2021/12/05 14:14:37;;;;;;;48.97;28.10;;;;;;;4.75;100.00;99255.94;5069400;28;20067;-66
2021/12/05 14:17:10;;;;;;;45.97;25.13;;;;;;;4.75;100.00;99259.44;5091075;28;20448;-66
2021/12/05 14:19:38;;;;;;;48.00;27.27;;;;;;;4.72;100.00;99264.16;5091758;28;20040;-66
2021/12/05 14:22:06;;;;;;;52.47;28.73;;;;;;;4.74;100.00;99256.91;5092613;28;20036;-66
2021/12/05 14:24:36;;;;;;;48.25;26.85;;;;;;;4.74;100.00;99254.25;5091853;28;20537;-65
2021/12/05 14:27:06;;;;;;;52.40;26.90;;;;;;;4.73;100.00;99252.56;5091252;28;20112;-66
2021/12/05 14:29:33;;;;;;;51.67;28.98;;;;;;;4.76;100.00;99268.25;5092008;28;20036;-65
2021/12/05 14:32:06;;;;;;;48.88;28.42;;;;;;;4.74;100.00;99263.06;5092832;28;20035;-65
2021/12/05 14:34:33;;;;;;;48.80;26.92;;;;;;;4.76;100.00;99260.28;5073300;28;20126;-65
2021/12/05 14:37:26;;;;;;;48.10;26.98;;;;;;;4.71;100.00;99249.22;5073777;28;20020;-65
2021/12/05 14:39:55;;;;;;;47.85;27.00;;;;;;;4.76;100.00;99262.94;5087521;28;20103;-65
2021/12/05 14:42:25;;;;;;;48.92;26.60;;;;;;;4.73;100.00;99260.53;5092124;28;20575;-65
2021/12/05 14:44:54;;;;;;;53.67;30.45;;;;;;;4.70;100.00;99252.81;5073562;28;20123;-66
2021/12/05 14:47:22;;;;;;;51.88;28.27;;;;;;;4.75;100.00;99266.56;5092212;28;20495;-65
2021/12/05 14:49:55;;;;;;;51.17;29.08;;;;;;;4.70;100.00;99256.31;5073531;28;20488;-65
2021/12/05 14:52:27;;;;;;;53.90;30.30;;;;;;;4.78;100.00;99271.63;5091619;28;20515;-66
2021/12/05 14:54:54;;;;;;;50.70;27.65;;;;;;;4.76;100.00;99260.28;5091158;28;20404;-66
2021/12/05 14:57:23;;;;;;;56.30;30.83;;;;;;;4.79;100.00;99257.38;5072916;28;20020;-66
2021/12/05 14:59:52;;;;;;;56.33;30.40;;;;;;;4.77;100.00;99237.22;5091885;28;20048;-66
2021/12/05 15:02:20;;;;;;;54.80;29.70;;;;;;;4.78;100.00;99245.91;5091816;28;20039;-66
2021/12/05 15:04:51;;;;;;;47.50;27.38;;;;;;;4.72;100.00;99227.84;5090858;28;20035;-66
2021/12/05 15:07:19;;;;;;;49.78;27.48;;;;;;;4.77;100.00;99245.19;5091616;28;20056;-66
2021/12/05 15:09:47;;;;;;;50.25;27.48;;;;;;;4.77;100.00;99243.38;5090717;28;20093;-66
2021/12/05 15:12:34;;;;;;;51.80;29.02;;;;;;;4.73;100.00;99232.16;5089172;28;20424;-66
2021/12/05 15:15:08;;;;;;;48.60;27.10;;;;;;;4.77;100.00;99247.84;5090458;28;20036;-65
2021/12/05 15:17:36;;;;;;;51.65;26.50;;;;;;;4.78;100.00;99253.03;5090760;28;20032;-66
2021/12/05 15:20:09;;;;;;;54.10;27.55;;;;;;;4.75;100.00;99250.63;5073364;28;20020;-66
2021/12/05 15:22:36;;;;;;;50.47;28.70;;;;;;;4.76;100.00;99252.31;5090569;28;20560;-65
2021/12/05 15:25:06;;;;;;;48.78;27.33;;;;;;;4.71;100.00;99252.69;5072318;28;20461;-66
2021/12/05 15:27:33;;;;;;;53.45;30.02;;;;;;;4.75;100.00;99261.25;5089110;28;20056;-66
2021/12/05 15:30:06;;;;;;;58.47;32.58;;;;;;;4.74;100.00;99263.06;5072650;28;20035;-65
2021/12/05 15:32:32;;;;;;;63.97;33.60;;;;;;;4.75;100.00;99277.19;5090499;28;20446;-66
2021/12/05 15:35:01;;;;;;;63.08;33.50;;;;;;;4.73;100.00;99269.34;5072791;28;20107;-66
2021/12/05 15:37:33;;;;;;;64.38;32.83;;;;;;;4.73;100.00;99265.84;5071929;28;20047;-66
2021/12/05 15:40:06;;;;;;;61.28;32.08;;;;;;;4.71;100.00;99260.66;5072130;28;20058;-66
2021/12/05 15:42:46;;;;;;;61.25;32.80;;;;;;;4.74;100.00;99268.38;5087359;28;20063;-66
2021/12/05 15:45:29;;;;;;;70.65;34.63;;;;;;;4.63;100.00;99249.81;5090286;28;20044;-67
2021/12/05 15:47:54;;;;;;;70.97;35.28;;;;;;;4.67;100.00;99268.97;5090738;28;20051;-67
2021/12/05 15:50:26;;;;;;;73.63;35.55;;;;;;;4.70;100.00;99263.44;5090763;28;20407;-67
2021/12/05 15:53:01;;;;;;;73.32;34.30;;;;;;;4.67;100.00;99259.22;5072062;28;20040;-67
2021/12/05 15:55:42;;;;;;;71.80;34.33;;;;;;;4.71;100.00;99265.97;5090938;28;20381;-66
2021/12/05 15:58:11;;;;;;;66.00;32.65;;;;;;;4.69;100.00;99251.13;5089284;28;20389;-66
2021/12/05 16:00:43;;;;;;;72.80;34.75;;;;;;;4.72;100.00;99256.19;5090439;28;20106;-66
2021/12/05 16:03:14;;;;;;;65.22;32.42;;;;;;;4.73;100.00;99258.72;5088085;28;20118;-66
2021/12/05 16:05:42;;;;;;;66.40;32.85;;;;;;;4.70;100.00;99256.31;5089903;28;20372;-66
2021/12/05 16:08:10;;;;;;;69.75;33.25;;;;;;;4.73;100.00;99242.78;5071633;28;20062;-66
2021/12/05 16:10:39;;;;;;;83.28;37.25;;;;;;;4.67;100.00;99245.94;5088547;28;20553;-65
2021/12/05 16:13:23;;;;;;;78.70;37.03;;;;;;;4.63;100.00;99235.69;5089345;28;20465;-66
2021/12/05 16:15:52;;;;;;;88.22;38.95;;;;;;;4.69;100.00;99236.06;5089841;28;20049;-66
2021/12/05 16:18:19;;;;;;;104.80;43.67;;;;;;;4.64;100.00;99222.28;5089524;28;20044;-66
2021/12/05 16:20:51;;;;;;;97.35;44.55;;;;;;;4.69;100.00;99228.09;5071175;28;20047;-66
2021/12/05 16:23:30;;;;;;;86.72;38.50;;;;;;;4.73;100.00;99237.47;5068347;28;20112;-66
2021/12/05 16:26:05;;;;;;;85.22;39.53;;;;;;;4.72;100.00;99240.25;5071134;28;20039;-66
2021/12/05 16:28:53;;;;;;;74.22;35.00;;;;;;;4.67;100.00;99240.63;5069505;28;20035;-66
2021/12/05 16:31:23;;;;;;;90.47;41.95;;;;;;;4.74;100.00;99256.91;5070066;28;20083;-66
2021/12/05 16:34:02;;;;;;;162.70;71.35;;;;;;;4.66;100.00;99248.72;5070891;28;20048;-66
2021/12/05 16:36:38;;;;;;;127.97;55.00;;;;;;;4.71;100.00;99258.00;5070614;28;20028;-66
2021/12/05 16:39:09;;;;;;;87.05;40.65;;;;;;;4.73;100.00;99274.66;5068470;28;20496;-67
2021/12/05 16:41:34;;;;;;;87.13;38.55;;;;;;;4.69;100.00;99259.94;5086555;28;20093;-67
2021/12/05 16:44:19;;;;;;;77.35;36.63;;;;;;;4.74;100.00;99270.16;5070432;28;20381;-66
2021/12/05 16:46:57;;;;;;;78.28;35.80;;;;;;;4.73;100.00;99269.34;5070951;28;20052;-66
2021/12/05 16:49:26;;;;;;;85.97;38.50;;;;;;;4.72;100.00;99267.66;5089007;28;20396;-67
2021/12/05 16:52:08;;;;;;;85.28;39.85;;;;;;;4.71;100.00;99259.81;5089076;28;20131;-66
2021/12/05 16:54:44;;;;;;;77.43;35.20;;;;;;;4.77;100.00;99280.56;5088173;28;20507;-66
2021/12/05 16:57:13;;;;;;;76.40;35.50;;;;;;;4.75;100.00;99283.31;5088006;28;20103;-66
2021/12/05 16:59:42;;;;;;;78.57;37.67;;;;;;;4.77;100.00;99279.72;5088754;28;20044;-66
2021/12/05 17:02:23;;;;;;;78.03;36.10;;;;;;;4.78;100.00;99281.41;5089214;28;20104;-66
2021/12/05 17:05:00;;;;;;;67.78;33.10;;;;;;;4.78;100.00;99274.28;5089212;28;20067;-66
2021/12/05 17:07:36;;;;;;;70.28;33.95;;;;;;;4.81;100.00;99265.22;5070612;28;20031;-67
2021/12/05 17:10:31;;;;;;;73.47;33.22;;;;;;;4.74;100.00;99265.72;5088510;28;20075;-67
2021/12/05 17:13:05;;;;;;;75.25;33.38;;;;;;;4.78;100.00;99271.63;5088352;28;20044;-66
2021/12/05 17:15:32;;;;;;;69.32;32.35;;;;;;;4.81;100.00;99275.84;5088533;28;20465;-66
2021/12/05 17:18:03;;;;;;;67.18;31.58;;;;;;;4.73;100.00;99272.00;5088858;28;20043;-67
2021/12/05 17:20:36;;;;;;;67.82;32.08;;;;;;;4.78;100.00;99265.47;5088836;28;20947;-66